Terminal Aerodrome Forecast
Issued by NWS

Home | Current Version | Previous Version | Text Only | Print | Product List | Glossary On
Versions: 1 2 3 4 5 6 7 8 9 10 11 12 13
233
FTPA31 PHFO 111734
TAFHNY
TAF
PHNY 111734Z 1118/1218 05010KT P6SM FEW023
     FM112000 05015KT P6SM FEW018 SCT040
     FM120600 05010KT P6SM SCT020 BKN040
      AMD NOT SKED=

USA.gov is the U.S. government's official web portal to all federal, state and local government web resources and services.